createdAt,value
2018-08-28T00:00:53.848Z,88.43
2018-08-28T00:01:53.858Z,88.93
2018-08-28T00:02:53.839Z,88.93
2018-08-28T00:03:53.819Z,89.43
2018-08-28T00:04:53.806Z,88.83
2018-08-28T00:05:53.795Z,88.93
2018-08-28T00:06:53.785Z,89.03
2018-08-28T00:07:53.813Z,89.13
2018-08-28T00:08:53.761Z,88.93
2018-08-28T00:09:53.753Z,89.54
2018-08-28T00:10:53.742Z,89.23
2018-08-28T00:11:53.734Z,88.73
2018-08-28T00:12:53.733Z,88.93
2018-08-28T00:13:53.737Z,88.67
2018-08-28T00:14:53.699Z,89.28
2018-08-28T00:15:53.688Z,89.28
2018-08-28T00:16:53.679Z,89.78
2018-08-28T00:17:53.682Z,89.28
2018-08-28T00:18:53.654Z,90.39
2018-08-28T00:19:53.685Z,90.08
2018-08-28T00:20:53.634Z,90.28
2018-08-28T00:21:53.622Z,90.08
2018-08-28T00:22:53.625Z,89.68
2018-08-28T00:23:53.600Z,89.88
2018-08-28T00:24:53.588Z,90.28
2018-08-28T00:25:53.595Z,89.88
2018-08-28T00:26:53.569Z,90.19
2018-08-28T00:27:53.569Z,90.19
2018-08-28T00:28:53.546Z,90.39
2018-08-28T00:29:53.536Z,90.39
2018-08-28T00:30:53.525Z,90.28
2018-08-28T00:31:53.546Z,90.08
2018-08-28T00:32:53.526Z,89.88
2018-08-28T00:33:53.489Z,90.08
2018-08-28T00:34:53.480Z,90.23
2018-08-28T00:35:53.471Z,90.23
2018-08-28T00:36:53.472Z,90.03
2018-08-28T00:37:53.484Z,90.23
2018-08-28T00:38:53.450Z,90.43
2018-08-28T00:39:53.428Z,90.43
2018-08-28T00:40:53.417Z,90.83
2018-08-28T00:41:53.405Z,90.94
2018-08-28T00:42:53.395Z,91.14
2018-08-28T00:43:53.424Z,90.78
2018-08-28T00:44:53.372Z,90.63
2018-08-28T00:45:53.358Z,90.73
2018-08-28T00:46:53.350Z,90.53
2018-08-28T00:47:53.339Z,90.43
2018-08-28T00:48:53.366Z,90.43
2018-08-28T00:49:53.316Z,90.43
2018-08-28T00:50:53.305Z,90.53
2018-08-28T00:51:53.294Z,90.73
2018-08-28T00:52:53.283Z,90.83
2018-08-28T00:53:53.286Z,90.73
2018-08-28T00:54:53.292Z,90.53
2018-08-28T00:55:53.263Z,90.63
2018-08-28T00:56:53.243Z,89.92
2018-08-28T00:57:53.228Z,90.33
2018-08-28T00:58:53.233Z,90.63
2018-08-28T00:59:53.206Z,89.92
2018-08-28T01:00:53.229Z,90.63
2018-08-28T01:01:53.184Z,90.78
2018-08-28T01:02:53.175Z,90.58
2018-08-28T01:03:53.179Z,90.88
2018-08-28T01:04:53.152Z,90.98
2018-08-28T01:05:53.145Z,90.94
2018-08-28T01:06:53.165Z,91.49
2018-08-28T01:07:53.349Z,91.14
2018-08-28T01:08:53.151Z,90.83
2018-08-28T01:09:53.099Z,90.33
2018-08-28T01:10:53.088Z,90.33
2018-08-28T01:11:53.077Z,90.43
2018-08-28T01:12:53.084Z,90.12
2018-08-28T01:13:53.070Z,90.12
2018-08-28T01:14:53.042Z,90.53
2018-08-28T01:15:53.032Z,90.33
2018-08-28T01:16:53.021Z,90.03
2018-08-28T01:17:53.011Z,90.53
2018-08-28T01:18:53.036Z,90.23
2018-08-28T01:19:52.989Z,90.23
2018-08-28T01:20:52.978Z,90.23
2018-08-28T01:21:52.966Z,90.27
2018-08-28T01:22:52.957Z,90.53
2018-08-28T01:23:52.957Z,90.63
2018-08-28T01:24:53.001Z,90.33
2018-08-28T01:25:52.924Z,90.67
2018-08-28T01:26:52.912Z,90.78
2018-08-28T01:27:52.907Z,90.67
2018-08-28T01:28:52.904Z,90.67
2018-08-28T01:29:52.879Z,91.08
2018-08-28T01:30:52.929Z,90.67
2018-08-28T01:31:52.857Z,90.98
2018-08-28T01:32:52.849Z,91.49
2018-08-28T01:33:52.852Z,91.22
2018-08-28T01:34:52.825Z,91.28
2018-08-28T01:35:52.815Z,90.78
2018-08-28T01:36:52.841Z,90.78
2018-08-28T01:37:52.795Z,90.78
2018-08-28T01:38:52.796Z,90.37
2018-08-28T01:39:52.774Z,90.03
2018-08-28T01:40:52.760Z,90.03
2018-08-28T01:41:52.751Z,89.92
2018-08-28T01:42:52.785Z,90.53
2018-08-28T01:43:52.744Z,90.58
2018-08-28T01:44:52.719Z,90.58
2018-08-28T01:45:52.708Z,90.78
2018-08-28T01:46:52.696Z,90.78
2018-08-28T01:47:52.683Z,90.88
2018-08-28T01:48:52.715Z,91.22
2018-08-28T01:49:52.665Z,91.42
2018-08-28T01:50:52.650Z,91.38
2018-08-28T01:51:52.642Z,90.82
2018-08-28T01:52:52.630Z,90.58
2018-08-28T01:53:52.647Z,90.78
2018-08-28T01:54:52.630Z,90.67
2018-08-28T01:55:52.599Z,90.27
2018-08-28T01:56:52.585Z,90.58
2018-08-28T01:57:52.575Z,90.47
2018-08-28T01:58:52.564Z,90.58
2018-08-28T01:59:52.566Z,90.58
2018-08-28T02:00:52.560Z,90.82
2018-08-28T02:01:52.555Z,90.92
2018-08-28T02:02:52.521Z,91.12
2018-08-28T02:03:52.509Z,91.47
2018-08-28T02:04:52.513Z,92.28
2018-08-28T02:05:52.492Z,91.83
2018-08-28T02:06:52.479Z,92.24
2018-08-28T02:07:52.737Z,91.28
2018-08-28T02:08:52.456Z,90.67
2018-08-28T02:09:52.463Z,90.17
2018-08-28T02:10:52.437Z,90.43
2018-08-28T02:11:52.427Z,90.03
2018-08-28T02:12:52.419Z,90.27
2018-08-28T02:13:52.432Z,90.27
2018-08-28T02:14:52.406Z,89.97
2018-08-28T02:15:52.380Z,90.27
2018-08-28T02:16:52.420Z,90.07
2018-08-28T02:17:52.359Z,90.07
2018-08-28T02:18:52.354Z,90.17
2018-08-28T02:19:52.479Z,90.58
2018-08-28T02:20:52.328Z,90.07
2018-08-28T02:21:52.316Z,90.17
2018-08-28T02:22:52.309Z,90.27
2018-08-28T02:23:52.297Z,90.17
2018-08-28T02:24:52.298Z,90.58
2018-08-28T02:25:52.306Z,90.47
2018-08-28T02:26:52.263Z,90.17
2018-08-28T02:27:52.255Z,90.17
2018-08-28T02:28:52.241Z,90.07
2018-08-28T02:29:52.248Z,90.47
2018-08-28T02:30:52.220Z,90.21
2018-08-28T02:31:52.250Z,90.31
2018-08-28T02:32:52.198Z,90.52
2018-08-28T02:33:52.191Z,90.72
2018-08-28T02:34:52.193Z,90.82
2018-08-28T02:35:52.165Z,90.72
2018-08-28T02:36:52.159Z,90.52
2018-08-28T02:37:52.196Z,90.72
2018-08-28T02:38:52.136Z,90.82
2018-08-28T02:39:52.137Z,90.92
2018-08-28T02:40:52.115Z,91.32
2018-08-28T02:41:52.102Z,90.86
2018-08-28T02:42:52.091Z,91.32
2018-08-28T02:43:52.100Z,91.42
2018-08-28T02:44:52.092Z,91.42
2018-08-28T02:45:52.058Z,91.02
2018-08-28T02:46:52.050Z,90.52
2018-08-28T02:47:52.040Z,90.11
2018-08-28T02:48:52.027Z,90.21
2018-08-28T02:49:52.039Z,90.62
2018-08-28T02:50:52.019Z,90.52
2018-08-28T02:51:51.995Z,90.21
2018-08-28T02:52:51.988Z,90.21
2018-08-28T02:53:51.975Z,90.41
2018-08-28T02:54:51.962Z,91.06
2018-08-28T02:55:52.006Z,91.27
2018-08-28T02:56:51.971Z,91.57
2018-08-28T02:57:51.931Z,91.82
2018-08-28T02:58:51.921Z,91.41
2018-08-28T02:59:51.910Z,89.23
2018-08-28T03:00:51.910Z,89.94
2018-08-28T03:01:51.891Z,90.89
2018-08-28T03:02:51.911Z,91.30
2018-08-28T03:03:51.871Z,93.06
2018-08-28T03:04:51.861Z,93.67
2018-08-28T03:05:51.857Z,94.02
2018-08-28T03:06:51.835Z,95.50
2018-08-28T03:07:51.823Z,95.70
2018-08-28T03:08:51.844Z,95.59
2018-08-28T03:09:51.806Z,95.86
2018-08-28T03:10:51.808Z,94.49
2018-08-28T03:11:51.779Z,93.54
2018-08-28T03:12:51.769Z,93.03
2018-08-28T03:13:51.759Z,92.18
2018-08-28T03:14:51.811Z,92.28
2018-08-28T03:15:51.753Z,91.16
2018-08-28T03:16:51.725Z,91.32
2018-08-28T03:17:51.716Z,90.62
2018-08-28T03:18:51.706Z,90.41
2018-08-28T03:19:51.696Z,90.31
2018-08-28T03:20:51.731Z,90.41
2018-08-28T03:21:51.673Z,90.31
2018-08-28T03:22:51.662Z,90.21
2018-08-28T03:23:51.652Z,90.47
2018-08-28T03:24:51.641Z,89.66
2018-08-28T03:25:51.644Z,89.97
2018-08-28T03:26:51.664Z,90.17
2018-08-28T03:27:51.621Z,89.56
2018-08-28T03:28:51.607Z,90.17
2018-08-28T03:29:51.590Z,90.41
2018-08-28T03:30:51.592Z,90.41
2018-08-28T03:31:51.567Z,90.31
2018-08-28T03:32:51.585Z,90.31
2018-08-28T03:33:51.545Z,90.11
2018-08-28T03:34:51.535Z,90.82
2018-08-28T03:35:51.539Z,90.62
2018-08-28T03:36:51.514Z,90.86
2018-08-28T03:37:51.503Z,90.86
2018-08-28T03:38:51.522Z,90.86
2018-08-28T03:39:51.483Z,90.96
2018-08-28T03:40:51.488Z,90.86
2018-08-28T03:41:51.464Z,90.86
2018-08-28T03:42:51.455Z,91.06
2018-08-28T03:43:51.439Z,90.86
2018-08-28T03:44:51.530Z,91.06
2018-08-28T03:45:51.431Z,90.91
2018-08-28T03:46:51.410Z,91.61
2018-08-28T03:47:51.397Z,91.41
2018-08-28T03:48:51.385Z,91.61
2018-08-28T03:49:51.411Z,91.82
2018-08-28T03:50:51.377Z,91.31
2018-08-28T03:51:51.353Z,91.51
2018-08-28T03:52:51.346Z,90.96
2018-08-28T03:53:51.335Z,91.37
2018-08-28T03:54:51.321Z,91.51
2018-08-28T03:55:51.432Z,91.41
2018-08-28T03:56:51.380Z,91.06
2018-08-28T03:57:51.292Z,90.76
2018-08-28T03:58:51.282Z,90.76
2018-08-28T03:59:51.271Z,91.20
2018-08-28T04:00:51.267Z,91.31
2018-08-28T04:01:51.262Z,91.92
2018-08-28T04:02:51.272Z,91.92
2018-08-28T04:03:51.226Z,92.02
2018-08-28T04:04:51.218Z,91.61
2018-08-28T04:05:51.206Z,91.61
2018-08-28T04:06:51.209Z,91.31
2018-08-28T04:07:51.186Z,92.12
2018-08-28T04:08:51.225Z,92.02
2018-08-28T04:09:51.162Z,91.92
2018-08-28T04:10:51.150Z,92.02
2018-08-28T04:11:51.163Z,91.92
2018-08-28T04:12:51.133Z,92.36
2018-08-28T04:13:51.121Z,92.42
2018-08-28T04:14:51.141Z,91.92
2018-08-28T04:15:51.100Z,91.61
2018-08-28T04:16:51.100Z,91.92
2018-08-28T04:17:51.081Z,91.61
2018-08-28T04:18:51.066Z,91.92
2018-08-28T04:19:51.058Z,92.22
2018-08-28T04:20:51.062Z,92.22
2018-08-28T04:21:51.050Z,92.42
2018-08-28T04:22:51.023Z,92.02
2018-08-28T04:23:51.014Z,91.96
2018-08-28T04:24:51.004Z,92.06
2018-08-28T04:25:50.991Z,92.47
2018-08-28T04:26:51.019Z,92.36
2018-08-28T04:27:50.968Z,92.57
2018-08-28T04:28:50.965Z,92.36
2018-08-28T04:29:50.948Z,92.36
2018-08-28T04:30:50.985Z,92.26
2018-08-28T04:31:50.939Z,92.16
2018-08-28T04:32:50.941Z,92.36
2018-08-28T04:33:50.904Z,92.67
2018-08-28T04:34:50.892Z,92.51
2018-08-28T04:35:50.883Z,92.71
2018-08-28T04:36:50.884Z,92.51
2018-08-28T04:37:50.863Z,91.90
2018-08-28T04:38:50.876Z,93.26
2018-08-28T04:39:50.839Z,93.46
2018-08-28T04:40:50.828Z,93.73
2018-08-28T04:41:50.962Z,93.42
2018-08-28T04:42:50.810Z,92.65
2018-08-28T04:43:50.798Z,93.42
2018-08-28T04:44:50.813Z,93.06
2018-08-28T04:45:50.773Z,93.06
2018-08-28T04:46:50.765Z,93.46
2018-08-28T04:47:50.770Z,94.38
2018-08-28T04:48:50.756Z,93.57
2018-08-28T04:49:50.739Z,94.58
2018-08-28T04:50:50.749Z,94.83
2018-08-28T04:51:50.709Z,94.89
2018-08-28T04:52:50.713Z,94.48
2018-08-28T04:53:50.686Z,94.07
2018-08-28T04:54:50.682Z,93.42
2018-08-28T04:55:50.667Z,92.82
2018-08-28T04:56:50.693Z,92.61
2018-08-28T04:57:50.658Z,92.87
2018-08-28T04:58:50.635Z,92.36
2018-08-28T04:59:50.621Z,92.61
2018-08-28T05:00:50.657Z,92.47
2018-08-28T05:01:50.601Z,92.06
2018-08-28T05:02:50.630Z,91.96
2018-08-28T05:03:50.580Z,91.86
2018-08-28T05:04:50.568Z,91.86
2018-08-28T05:05:50.557Z,92.26
2018-08-28T05:06:50.547Z,92.26
2018-08-28T05:07:50.550Z,92.41
2018-08-28T05:08:50.541Z,92.41
2018-08-28T05:09:50.512Z,92.21
2018-08-28T05:10:50.502Z,92.16
2018-08-28T05:11:50.509Z,91.96
2018-08-28T05:12:50.492Z,92.10
2018-08-28T05:13:50.468Z,92.06
2018-08-28T05:14:50.502Z,91.96
2018-08-28T05:15:50.480Z,91.66
2018-08-28T05:16:50.437Z,91.15
2018-08-28T05:17:50.440Z,91.25
2018-08-28T05:18:50.415Z,90.95
2018-08-28T05:19:50.405Z,91.11
2018-08-28T05:20:50.413Z,90.80
2018-08-28T05:21:50.383Z,90.80
2018-08-28T05:22:50.397Z,90.70
2018-08-28T05:23:50.360Z,90.80
2018-08-28T05:24:50.353Z,90.80
2018-08-28T05:25:50.343Z,90.50
2018-08-28T05:26:50.389Z,90.70
2018-08-28T05:27:50.319Z,90.80
2018-08-28T05:28:50.324Z,90.25
2018-08-28T05:29:50.300Z,90.16
2018-08-28T05:30:50.287Z,90.56
2018-08-28T05:31:50.277Z,90.05
2018-08-28T05:32:50.296Z,90.25
2018-08-28T05:33:50.270Z,89.85
2018-08-28T05:34:50.244Z,88.94
2018-08-28T05:35:50.234Z,89.10
2018-08-28T05:36:50.223Z,89.36
2018-08-28T05:37:50.248Z,88.55
2018-08-28T05:38:50.250Z,89.16
2018-08-28T05:39:50.193Z,88.45
2018-08-28T05:40:50.182Z,88.25
2018-08-28T05:41:50.171Z,88.01
2018-08-28T05:42:50.161Z,87.70
2018-08-28T05:43:50.164Z,87.44
2018-08-28T05:44:50.176Z,87.60
2018-08-28T05:45:50.126Z,87.60
2018-08-28T05:46:50.115Z,87.19
2018-08-28T05:47:50.105Z,87.40
2018-08-28T05:48:50.106Z,87.70
2018-08-28T05:49:50.086Z,87.50
2018-08-28T05:50:50.090Z,87.81
2018-08-28T05:51:50.068Z,88.45
2018-08-28T05:52:50.071Z,89.06
2018-08-28T05:53:50.050Z,89.26
2018-08-28T05:54:50.078Z,89.16
2018-08-28T05:55:50.032Z,89.16
2018-08-28T05:56:50.006Z,89.46
2018-08-28T05:57:49.993Z,88.51
2018-08-28T05:58:50.007Z,88.81
2018-08-28T05:59:49.990Z,88.01
2018-08-28T06:00:49.963Z,87.15
2018-08-28T06:01:49.954Z,86.71
2018-08-28T06:02:49.998Z,85.76
2018-08-28T06:03:49.944Z,85.31
2018-08-28T06:04:49.917Z,83.80
2018-08-28T06:05:49.934Z,83.30
2018-08-28T06:06:49.895Z,83.76
2018-08-28T06:07:49.886Z,83.02
2018-08-28T06:08:49.914Z,81.57
2018-08-28T06:09:49.867Z,81.33
2018-08-28T06:10:49.854Z,80.89
2018-08-28T06:11:49.873Z,80.45
2018-08-28T06:12:49.832Z,79.44
2018-08-28T06:13:49.821Z,79.44
2018-08-28T06:14:49.918Z,79.94
2018-08-28T06:15:49.800Z,79.61
2018-08-28T06:16:49.788Z,78.77
2018-08-28T06:17:49.806Z,77.62
2018-08-28T06:18:49.766Z,76.68
2018-08-28T06:19:49.772Z,76.78
2018-08-28T06:20:49.747Z,76.25
2018-08-28T06:21:49.733Z,76.01
2018-08-28T06:22:49.772Z,75.63
2018-08-28T06:23:49.734Z,72.89
2018-08-28T06:24:49.739Z,72.19
2018-08-28T06:25:49.731Z,71.96
2018-08-28T06:26:49.681Z,69.69
2018-08-28T06:27:49.671Z,70.89
2018-08-28T06:28:49.659Z,72.09
2018-08-28T06:29:49.664Z,70.39
2018-08-28T06:30:49.643Z,70.46
2018-08-28T06:31:49.647Z,70.66
2018-08-28T06:32:49.634Z,70.66
2018-08-28T06:33:49.670Z,70.92
2018-08-28T06:34:49.610Z,70.92
2018-08-28T06:35:49.584Z,70.32
2018-08-28T06:36:49.573Z,70.23
2018-08-28T06:37:49.564Z,69.29
2018-08-28T06:38:49.581Z,68.69
2018-08-28T06:39:49.576Z,69.12
2018-08-28T06:40:49.565Z,69.09
2018-08-28T06:41:49.539Z,71.06
2018-08-28T06:42:49.515Z,68.99
2018-08-28T06:43:49.598Z,70.26
2018-08-28T06:44:49.526Z,68.82
2018-08-28T06:45:49.488Z,68.13
2018-08-28T06:46:49.486Z,67.99
2018-08-28T06:47:49.474Z,68.99
2018-08-28T06:48:49.463Z,69.39
2018-08-28T06:49:49.465Z,70.19
2018-08-28T06:50:49.454Z,71.23
2018-08-28T06:51:49.411Z,69.89
2018-08-28T06:52:49.421Z,72.06
2018-08-28T06:53:49.407Z,73.10
2018-08-28T06:54:49.401Z,74.64
2018-08-28T06:55:49.373Z,74.74
2018-08-28T06:56:49.429Z,77.65
2018-08-28T06:57:49.390Z,77.09
2018-08-28T06:58:49.346Z,76.98
2018-08-28T06:59:49.360Z,78.19
2018-08-28T07:00:49.336Z,77.75
2018-08-28T07:01:49.322Z,78.29
2018-08-28T07:02:49.303Z,79.80
2018-08-28T07:03:49.361Z,78.55
2018-08-28T07:04:49.285Z,78.29
2018-08-28T07:05:49.292Z,77.37
2018-08-28T07:06:49.250Z,76.07
2018-08-28T07:07:49.295Z,76.98
2018-08-28T07:08:49.236Z,74.06
2018-08-28T07:09:49.288Z,73.29
2018-08-28T07:10:49.222Z,73.09
2018-08-28T07:11:49.218Z,72.09
2018-08-28T07:12:49.202Z,71.86
2018-08-28T07:13:49.209Z,69.23
2018-08-28T07:14:49.170Z,69.49
2018-08-28T07:15:49.182Z,68.96
2018-08-28T07:16:49.149Z,69.43
2018-08-28T07:17:49.139Z,68.26
2018-08-28T07:18:49.233Z,66.44
2018-08-28T07:19:49.109Z,67.20
2018-08-28T07:20:49.125Z,67.83
2018-08-28T07:21:49.117Z,68.66
2018-08-28T07:22:49.095Z,69.29
2018-08-28T07:23:49.120Z,70.36
2018-08-28T07:24:49.060Z,70.72
2018-08-28T07:25:49.179Z,68.76
2018-08-28T07:26:49.069Z,68.70
2018-08-28T07:27:49.045Z,70.79
2018-08-28T07:28:49.036Z,68.52
2018-08-28T07:29:49.004Z,70.36
2018-08-28T07:30:49.023Z,71.89
2018-08-28T07:31:49.066Z,72.96
2018-08-28T07:32:48.990Z,72.09
2018-08-28T07:33:48.991Z,71.89
2018-08-28T07:34:48.948Z,70.86
2018-08-28T07:35:48.968Z,70.89
2018-08-28T07:36:48.963Z,71.73
2018-08-28T07:37:48.928Z,72.60
2018-08-28T07:38:48.936Z,75.13
2018-08-28T07:39:48.926Z,77.20
2018-08-28T07:40:48.903Z,75.50
2018-08-28T07:41:48.883Z,76.10
2018-08-28T07:42:48.947Z,74.87
2018-08-28T07:43:48.864Z,73.06
2018-08-28T07:44:48.847Z,74.09
2018-08-28T07:45:48.882Z,71.92
2018-08-28T07:46:48.844Z,73.06
2018-08-28T07:47:48.820Z,71.96
2018-08-28T07:48:48.807Z,73.62
2018-08-28T07:49:48.795Z,71.89
2018-08-28T07:50:48.808Z,71.49
2018-08-28T07:51:48.773Z,70.12
2018-08-28T07:52:48.762Z,70.09
2018-08-28T07:53:48.779Z,69.69
2018-08-28T07:54:48.766Z,70.29
2018-08-28T07:55:48.773Z,73.66
2018-08-28T07:56:48.712Z,72.83
2018-08-28T07:57:48.716Z,71.92
2018-08-28T07:58:48.695Z,73.03
2018-08-28T07:59:48.708Z,73.49
2018-08-28T08:00:48.703Z,72.59
2018-08-28T08:01:48.679Z,70.96
2018-08-28T08:02:48.665Z,69.16
2018-08-28T08:03:48.655Z,67.73
2018-08-28T08:04:48.645Z,67.30
2018-08-28T08:05:48.652Z,67.90
2018-08-28T08:06:48.617Z,67.23
2018-08-28T08:07:48.641Z,65.97
2018-08-28T08:08:48.601Z,67.00
2018-08-28T08:09:48.605Z,67.93
2018-08-28T08:10:48.575Z,66.41
2018-08-28T08:11:48.563Z,66.71
2018-08-28T08:12:48.554Z,65.14
2018-08-28T08:13:48.552Z,64.67
2018-08-28T08:14:48.552Z,67.80
2018-08-28T08:15:48.542Z,66.87
2018-08-28T08:16:48.535Z,63.13
2018-08-28T08:17:48.499Z,61.41
2018-08-28T08:18:48.503Z,61.51
2018-08-28T08:19:48.497Z,61.08
2018-08-28T08:20:48.455Z,59.93
2018-08-28T08:21:48.469Z,57.10
2018-08-28T08:22:48.462Z,58.65
2018-08-28T08:23:48.463Z,57.71
2018-08-28T08:24:48.439Z,56.86
2018-08-28T08:25:48.401Z,55.38
2018-08-28T08:26:48.426Z,55.70
2018-08-28T08:27:48.438Z,57.54
2018-08-28T08:28:48.386Z,57.41
2018-08-28T08:29:48.370Z,58.47
2018-08-28T08:30:48.365Z,58.07
2018-08-28T08:31:48.363Z,55.87
2018-08-28T08:32:48.359Z,55.39
2018-08-28T08:33:48.323Z,58.59
2018-08-28T08:34:48.314Z,58.75
2018-08-28T08:35:48.303Z,57.90
2018-08-28T08:36:48.335Z,58.07
2018-08-28T08:37:48.274Z,56.93
2018-08-28T08:38:48.282Z,53.89
2018-08-28T08:39:48.256Z,56.76
2018-08-28T08:40:48.278Z,55.15
2018-08-28T08:41:48.250Z,57.03
2018-08-28T08:42:48.256Z,53.94
2018-08-28T08:43:48.230Z,54.51
2018-08-28T08:44:48.208Z,54.63
2018-08-28T08:45:48.236Z,53.85
2018-08-28T08:46:48.212Z,56.00
2018-08-28T08:47:48.205Z,56.99
2018-08-28T08:48:48.169Z,56.40
2018-08-28T08:49:48.159Z,55.63
2018-08-28T08:50:48.153Z,55.83
2018-08-28T08:51:48.134Z,56.27
2018-08-28T08:52:48.178Z,57.03
2018-08-28T08:53:48.105Z,56.02
2018-08-28T08:54:48.118Z,55.57
2018-08-28T08:55:48.090Z,55.44
2018-08-28T08:56:48.081Z,53.57
2018-08-28T08:57:48.149Z,55.08
2018-08-28T08:58:48.075Z,57.98
2018-08-28T08:59:48.044Z,56.69
2018-08-28T09:00:48.040Z,57.98
2018-08-28T09:01:48.026Z,57.23
2018-08-28T09:02:48.095Z,54.83
2018-08-28T09:03:48.005Z,55.03
2018-08-28T09:04:48.010Z,55.13
2018-08-28T09:05:47.988Z,56.81
2018-08-28T09:06:47.987Z,55.27
2018-08-28T09:07:48.020Z,53.50
2018-08-28T09:08:47.980Z,52.70
2018-08-28T09:09:47.947Z,54.90
2018-08-28T09:10:47.931Z,53.00
2018-08-28T09:11:47.929Z,53.15
2018-08-28T09:12:47.932Z,53.15
2018-08-28T09:13:47.913Z,52.73
2018-08-28T09:14:47.931Z,53.75
2018-08-28T09:15:47.874Z,53.25
2018-08-28T09:16:47.866Z,56.88
2018-08-28T09:17:47.875Z,51.82
2018-08-28T09:18:47.853Z,51.45
2018-08-28T09:19:47.839Z,51.32
2018-08-28T09:20:47.881Z,54.47
2018-08-28T09:21:47.812Z,50.81
2018-08-28T09:22:47.822Z,53.94
2018-08-28T09:23:47.818Z,51.94
2018-08-28T09:24:47.778Z,52.04
2018-08-28T09:25:47.778Z,51.84
2018-08-28T09:26:47.807Z,52.11
2018-08-28T09:27:47.783Z,53.50
2018-08-28T09:28:47.750Z,52.56
2018-08-28T09:29:47.732Z,50.24
2018-08-28T09:30:47.729Z,50.02
2018-08-28T09:31:47.822Z,50.81
2018-08-28T09:32:47.756Z,49.62
2018-08-28T09:33:47.709Z,51.00
2018-08-28T09:34:47.726Z,49.43
2018-08-28T09:35:47.690Z,50.31
2018-08-28T09:36:47.661Z,49.82
2018-08-28T09:37:47.650Z,50.71
2018-08-28T09:38:47.756Z,49.92
2018-08-28T09:39:47.658Z,52.09
2018-08-28T09:40:47.617Z,51.97
2018-08-28T09:41:47.604Z,50.61
2018-08-28T09:42:47.592Z,50.42
2018-08-28T09:43:47.650Z,49.50
2018-08-28T09:44:47.608Z,50.71
2018-08-28T09:45:47.575Z,49.99
2018-08-28T09:46:47.554Z,50.44
2018-08-28T09:47:47.567Z,52.90
2018-08-28T09:48:47.547Z,48.94
2018-08-28T09:49:47.540Z,50.49
2018-08-28T09:50:47.607Z,49.90
2018-08-28T09:51:47.504Z,50.37
2018-08-28T09:52:47.567Z,49.23
2018-08-28T09:53:47.518Z,48.37
2018-08-28T09:54:47.482Z,49.46
2018-08-28T09:55:47.466Z,49.13
2018-08-28T09:56:47.479Z,50.71
2018-08-28T09:57:47.447Z,48.74
2018-08-28T09:58:47.509Z,49.43
2018-08-28T09:59:47.436Z,48.05
2018-08-28T10:00:47.417Z,50.88
2018-08-28T10:01:47.401Z,52.16
2018-08-28T10:02:47.390Z,50.63
2018-08-28T10:03:47.406Z,48.30
2018-08-28T10:04:47.500Z,48.66
2018-08-28T10:05:47.433Z,50.46
2018-08-28T10:06:47.365Z,49.99
2018-08-28T10:07:47.449Z,49.92
2018-08-28T10:08:47.383Z,49.62
2018-08-28T10:09:47.333Z,51.20
2018-08-28T10:10:47.353Z,48.00
2018-08-28T10:11:47.356Z,48.35
2018-08-28T10:12:47.342Z,46.55
2018-08-28T10:13:47.305Z,48.37
2018-08-28T10:14:47.273Z,46.36
2018-08-28T10:15:47.264Z,46.97
2018-08-28T10:16:47.259Z,46.72
2018-08-28T10:17:47.320Z,48.03
2018-08-28T10:18:47.231Z,49.38
2018-08-28T10:19:47.238Z,47.39
2018-08-28T10:20:47.239Z,49.13
2018-08-28T10:21:47.207Z,49.41
2018-08-28T10:22:47.205Z,47.30
2018-08-28T10:23:47.192Z,43.86
2018-08-28T10:24:47.189Z,46.41
2018-08-28T10:25:47.200Z,44.16
2018-08-28T10:26:47.226Z,47.15
2018-08-28T10:27:47.209Z,48.30
2018-08-28T10:28:47.140Z,46.73
2018-08-28T10:29:47.207Z,46.06
2018-08-28T10:30:47.113Z,47.03
2018-08-28T10:31:47.101Z,44.79
2018-08-28T10:32:47.094Z,46.36
2018-08-28T10:33:47.082Z,46.85
2018-08-28T10:34:47.148Z,46.24
2018-08-28T10:35:47.068Z,45.30
2018-08-28T10:36:47.052Z,45.87
2018-08-28T10:37:47.042Z,44.77
2018-08-28T10:38:47.033Z,47.79
2018-08-28T10:39:47.038Z,45.90
2018-08-28T10:40:49.989Z,45.00
2018-08-28T10:41:47.016Z,46.44
2018-08-28T10:42:46.992Z,45.90
2018-08-28T10:43:46.982Z,48.55
2018-08-28T10:44:47.008Z,46.02
2018-08-28T10:45:46.965Z,45.06
2018-08-28T10:46:47.048Z,45.34
2018-08-28T10:47:47.017Z,44.65
2018-08-28T10:48:46.973Z,45.97
2018-08-28T10:49:46.947Z,46.17
2018-08-28T10:50:46.944Z,49.58
2018-08-28T10:51:46.905Z,44.35
2018-08-28T10:52:46.959Z,46.31
2018-08-28T10:53:46.891Z,46.04
2018-08-28T10:54:46.923Z,49.26
2018-08-28T10:55:46.865Z,47.91
2018-08-28T10:56:46.861Z,46.24
2018-08-28T10:57:46.853Z,47.03
2018-08-28T10:58:46.917Z,46.22
2018-08-28T10:59:46.876Z,46.31
2018-08-28T11:00:46.853Z,46.88
2018-08-28T11:01:46.807Z,45.41
2018-08-28T11:02:46.797Z,49.82
2018-08-28T11:03:46.805Z,45.29
2018-08-28T11:04:46.786Z,44.12
2018-08-28T11:05:46.774Z,43.84
2018-08-28T11:06:46.810Z,45.04
2018-08-28T11:07:46.752Z,46.30
2018-08-28T11:08:46.826Z,46.78
2018-08-28T11:09:46.744Z,49.26
2018-08-28T11:10:46.718Z,44.65
2018-08-28T11:11:46.709Z,45.24
2018-08-28T11:12:46.770Z,44.98
2018-08-28T11:13:46.701Z,47.91
2018-08-28T11:14:46.705Z,47.22
2018-08-28T11:15:46.717Z,44.57
2018-08-28T11:16:46.660Z,46.53
2018-08-28T11:17:46.653Z,44.94
2018-08-28T11:18:46.655Z,42.47
2018-08-28T11:19:46.661Z,44.13
2018-08-28T11:20:46.630Z,43.94
2018-08-28T11:21:46.629Z,42.88
2018-08-28T11:22:46.629Z,43.88
2018-08-28T11:23:46.592Z,44.45
2018-08-28T11:24:46.604Z,44.55
2018-08-28T11:25:46.585Z,48.47
2018-08-28T11:26:46.566Z,44.53
2018-08-28T11:27:46.551Z,43.65
2018-08-28T11:28:46.574Z,44.51
2018-08-28T11:29:46.531Z,46.15
2018-08-28T11:30:46.574Z,42.43
2018-08-28T11:31:46.525Z,45.34
2018-08-28T11:32:46.529Z,43.48
2018-08-28T11:33:46.498Z,44.48
2018-08-28T11:34:46.490Z,45.07
2018-08-28T11:35:46.560Z,43.21
2018-08-28T11:36:46.466Z,46.33
2018-08-28T11:37:46.484Z,44.07
2018-08-28T11:38:46.488Z,43.82
2018-08-28T11:39:46.434Z,44.74
2018-08-28T11:40:46.441Z,45.43
2018-08-28T11:41:46.449Z,43.74
2018-08-28T11:42:46.402Z,42.11
2018-08-28T11:43:46.401Z,44.59
2018-08-28T11:44:46.430Z,43.26
2018-08-28T11:45:46.400Z,46.28
2018-08-28T11:46:46.404Z,43.53
2018-08-28T11:47:46.399Z,46.06
2018-08-28T11:48:46.382Z,44.30
2018-08-28T11:49:46.336Z,47.71
2018-08-28T11:50:46.340Z,46.22
2018-08-28T11:51:46.347Z,47.07
2018-08-28T11:52:46.427Z,46.09
2018-08-28T11:53:46.297Z,45.67
2018-08-28T11:54:46.334Z,46.60
2018-08-28T11:55:46.288Z,45.54
2018-08-28T11:56:46.265Z,45.07
2018-08-28T11:57:46.254Z,46.08
2018-08-28T11:58:46.243Z,46.00
2018-08-28T11:59:46.236Z,46.10
2018-08-28T12:00:46.279Z,45.19
2018-08-28T12:01:46.231Z,45.56
2018-08-28T12:02:46.233Z,49.38
2018-08-28T12:03:46.222Z,46.31
2018-08-28T12:04:46.372Z,44.54
2018-08-28T12:05:46.275Z,45.23
2018-08-28T12:06:46.214Z,45.81
2018-08-28T12:07:46.201Z,46.88
2018-08-28T12:08:46.158Z,44.30
2018-08-28T12:09:46.158Z,45.63
2018-08-28T12:10:46.133Z,42.39
2018-08-28T12:11:46.107Z,46.24
2018-08-28T12:12:46.112Z,44.37
2018-08-28T12:13:46.119Z,46.26
2018-08-28T12:14:46.117Z,49.73
2018-08-28T12:15:46.095Z,45.30
2018-08-28T12:16:46.062Z,46.17
2018-08-28T12:17:46.071Z,44.59
2018-08-28T12:18:46.088Z,44.12
2018-08-28T12:19:46.031Z,47.91
2018-08-28T12:20:46.072Z,45.84
2018-08-28T12:21:46.046Z,45.23
2018-08-28T12:22:45.995Z,46.82
2018-08-28T12:23:46.024Z,46.31
2018-08-28T12:24:46.095Z,45.84
2018-08-28T12:25:46.163Z,44.17
2018-08-28T12:26:46.731Z,45.88
2018-08-28T12:27:46.327Z,46.00
2018-08-28T12:28:45.963Z,46.37
2018-08-28T12:29:45.996Z,46.47
2018-08-28T12:30:46.027Z,46.22
2018-08-28T12:31:46.108Z,46.07
2018-08-28T12:32:46.146Z,47.72
2018-08-28T12:33:46.186Z,48.51
2018-08-28T12:34:46.071Z,49.60
2018-08-28T12:35:45.862Z,50.44
2018-08-28T12:36:46.013Z,46.99
2018-08-28T12:37:45.880Z,45.14
2018-08-28T12:38:45.854Z,46.25
2018-08-28T12:39:45.880Z,50.09
2018-08-28T12:40:45.859Z,47.41
2018-08-28T12:41:45.858Z,48.49
2018-08-28T12:42:46.247Z,48.17
2018-08-28T12:43:45.939Z,47.88
2018-08-28T12:44:45.770Z,48.86
2018-08-28T12:45:45.836Z,49.04
2018-08-28T12:46:45.790Z,50.31
2018-08-28T12:47:45.828Z,47.16
2018-08-28T12:48:45.935Z,47.16
2018-08-28T12:49:45.809Z,47.19
2018-08-28T12:50:45.848Z,46.40
2018-08-28T12:51:45.734Z,50.63
2018-08-28T12:52:45.770Z,49.26